Lantana, FL (33462)

7:48 AM EDT on May 26, 2015 (GMT -0400)
TWO GEMS Wind & Weather | | Change Station
CLOSE
Current Station
Personal Weather Station
Location: Lake Worth, FL
Elevation: 14 ft
Nearby Weather Stations

Elev 14 ft 26.59 °N, 80.11 °W | Updated 56 seconds ago

Overcast
Overcast
79.4 °F
Feels Like 83 °F
N
3.0
Wind Variable Wind from East
Gusts 0.0 mph

Today
High -- | Low -- °F
--% Chance of Precip.
Yesterday
High -- | Low -- °F
Precip. -- in
6:28 AM 8:06 PM
First Quarter, 57% visible
Pressure 30.18 in
Visibility 10.0 miles
Clouds Mostly Cloudy 2200 ft
Mostly Cloudy 3200 ft
Mostly Cloudy 25000 ft
Heat Index 83 °F
Dew Point 73 °F
Humidity 80%
Rainfall 0.00 in
Snow Depth Not available.
UV 0 out of 12
Pollen 5.30 out of 12
Air Quality Not available.
Flu Activity Sporadic
SPECI KPBI 261121Z 11015KT 10SM BKN022 BKN032TCU BKN250 27/22 A3018 RMK AO2 TCU NE-SE AND NW T02670222

More Conditions Fewer Conditions

Pressure 30.18 in
Visibility 10.0 miles
Clouds Mostly Cloudy 2200 ft
Mostly Cloudy 3200 ft
Mostly Cloudy 25000 ft
Heat Index 83 °F
Dew Point 73 °F
Humidity 80%
Rainfall 0.00 in
Snow Depth Not available.
UV 0 out of 12
Pollen 5.30 out of 12
Air Quality Not available.
Flu Activity Sporadic
SPECI KPBI 261121Z 11015KT 10SM BKN022 BKN032TCU BKN250 27/22 A3018 RMK AO2 TCU NE-SE AND NW T02670222

More Conditions Fewer Conditions

10-Day Weather Forecast

Almanac

Astronomy

May. 26, 2015 Rise Set
Actual Time
Civil Twilight
Nautical Twilight
Astronomical Twilight
Moon
Length of Visible Light
Length of Day
Tomorrow will be .
, % of the Moon is Illuminated

Today's Extremes

State Highs State Lows

Community

WunderPhotos

Upload Photos

1,824,304 photos uploaded!

WunderBlogs® & News

Nearby

Air Quality

  Air Quality AQ Index Pollutant
Not available.

Snow Depth

Station Depth Elevation

Earthquake Activity

City Distance Mag. Time & Date
Minimum magnitude displayed is 2.5.

Coastal Water Temperatures

Place Temperature

Stations

Nearby Weather Stations

Station Location Temp. Windchill Dew Point Humidity Wind Precip. Elev Updated Type